sensor_id;sensor_type;location;lat;lon;timestamp;P1;durP1;ratioP1;P2;durP2;ratioP2
35667;SDS011;22158;59.280;17.806;2023-02-28T05:00:42;1.27;;;1.08;;
35667;SDS011;22158;59.280;17.806;2023-02-28T05:03:08;1.42;;;0.85;;
35667;SDS011;22158;59.280;17.806;2023-02-28T05:05:34;1.52;;;0.70;;
35667;SDS011;22158;59.280;17.806;2023-02-28T05:08:00;0.85;;;0.82;;
35667;SDS011;22158;59.280;17.806;2023-02-28T05:10:26;1.10;;;0.80;;
35667;SDS011;22158;59.280;17.806;2023-02-28T05:12:52;1.35;;;0.80;;
35667;SDS011;22158;59.280;17.806;2023-02-28T05:15:17;1.00;;;0.90;;
35667;SDS011;22158;59.280;17.806;2023-02-28T05:17:43;1.52;;;0.90;;
35667;SDS011;22158;59.280;17.806;2023-02-28T05:20:09;0.90;;;0.75;;
35667;SDS011;22158;59.280;17.806;2023-02-28T05:22:38;1.00;;;0.90;;
35667;SDS011;22158;59.280;17.806;2023-02-28T05:25:05;0.80;;;0.80;;
35667;SDS011;22158;59.280;17.806;2023-02-28T05:27:32;6.63;;;0.80;;
35667;SDS011;22158;59.280;17.806;2023-02-28T05:29:58;0.75;;;0.68;;
35667;SDS011;22158;59.280;17.806;2023-02-28T05:32:24;0.65;;;0.65;;
35667;SDS011;22158;59.280;17.806;2023-02-28T05:34:50;0.95;;;0.70;;
35667;SDS011;22158;59.280;17.806;2023-02-28T05:37:16;1.50;;;0.95;;
35667;SDS011;22158;59.280;17.806;2023-02-28T05:39:42;1.17;;;0.80;;
35667;SDS011;22158;59.280;17.806;2023-02-28T05:42:08;0.80;;;0.77;;
35667;SDS011;22158;59.280;17.806;2023-02-28T05:44:34;0.80;;;0.50;;
35667;SDS011;22158;59.280;17.806;2023-02-28T05:47:00;0.68;;;0.68;;
35667;SDS011;22158;59.280;17.806;2023-02-28T05:49:26;0.70;;;0.60;;
35667;SDS011;22158;59.280;17.806;2023-02-28T05:51:52;1.10;;;0.90;;
35667;SDS011;22158;59.280;17.806;2023-02-28T05:54:17;1.02;;;0.80;;
35667;SDS011;22158;59.280;17.806;2023-02-28T05:56:43;1.95;;;0.90;;
35667;SDS011;22158;59.280;17.806;2023-02-28T05:59:10;2.33;;;0.90;;
35667;SDS011;22158;59.280;17.806;2023-02-28T06:04:07;1.13;;;0.77;;
35667;SDS011;22158;59.280;17.806;2023-02-28T06:06:34;1.58;;;0.82;;
35667;SDS011;22158;59.280;17.806;2023-02-28T06:09:01;1.20;;;0.90;;
35667;SDS011;22158;59.280;17.806;2023-02-28T06:11:27;1.13;;;0.95;;
35667;SDS011;22158;59.280;17.806;2023-02-28T06:13:56;1.00;;;0.90;;
35667;SDS011;22158;59.280;17.806;2023-02-28T06:16:25;1.17;;;0.80;;
35667;SDS011;22158;59.280;17.806;2023-02-28T06:18:51;0.77;;;0.77;;
35667;SDS011;22158;59.280;17.806;2023-02-28T06:21:17;1.15;;;0.80;;
35667;SDS011;22158;59.280;17.806;2023-02-28T06:23:43;2.95;;;1.00;;
35667;SDS011;22158;59.280;17.806;2023-02-28T06:26:10;0.73;;;0.70;;
35667;SDS011;22158;59.280;17.806;2023-02-28T06:28:36;0.85;;;0.80;;
35667;SDS011;22158;59.280;17.806;2023-02-28T06:31:20;1.23;;;0.80;;
35667;SDS011;22158;59.280;17.806;2023-02-28T06:33:47;1.30;;;0.98;;
35667;SDS011;22158;59.280;17.806;2023-02-28T06:36:14;1.83;;;0.90;;
35667;SDS011;22158;59.280;17.806;2023-02-28T06:38:41;0.77;;;0.77;;
35667;SDS011;22158;59.280;17.806;2023-02-28T06:41:07;1.00;;;0.80;;
35667;SDS011;22158;59.280;17.806;2023-02-28T06:43:35;1.08;;;0.93;;
35667;SDS011;22158;59.280;17.806;2023-02-28T06:46:04;1.10;;;1.00;;
35667;SDS011;22158;59.280;17.806;2023-02-28T06:48:31;2.00;;;1.00;;
35667;SDS011;22158;59.280;17.806;2023-02-28T06:51:01;1.88;;;1.33;;
35667;SDS011;22158;59.280;17.806;2023-02-28T06:53:32;1.35;;;0.90;;
35667;SDS011;22158;59.280;17.806;2023-02-28T06:55:58;1.77;;;0.77;;
35667;SDS011;22158;59.280;17.806;2023-02-28T06:58:24;2.40;;;0.75;;
35667;SDS011;22158;59.280;17.806;2023-02-28T07:00:50;1.30;;;0.90;;
35667;SDS011;22158;59.280;17.806;2023-02-28T07:03:17;1.38;;;0.90;;
35667;SDS011;22158;59.280;17.806;2023-02-28T07:05:43;1.13;;;1.02;;
35667;SDS011;22158;59.280;17.806;2023-02-28T07:08:10;1.27;;;0.75;;
35667;SDS011;22158;59.280;17.806;2023-02-28T07:10:39;1.13;;;0.65;;
35667;SDS011;22158;59.280;17.806;2023-02-28T07:13:06;1.67;;;1.00;;
35667;SDS011;22158;59.280;17.806;2023-02-28T07:15:33;0.93;;;0.70;;
35667;SDS011;22158;59.280;17.806;2023-02-28T07:17:59;0.90;;;0.70;;
35667;SDS011;22158;59.280;17.806;2023-02-28T07:20:25;1.92;;;0.80;;
35667;SDS011;22158;59.280;17.806;2023-02-28T07:22:51;1.08;;;0.85;;
35667;SDS011;22158;59.280;17.806;2023-02-28T07:25:30;0.70;;;0.70;;
35667;SDS011;22158;59.280;17.806;2023-02-28T07:27:56;1.10;;;0.77;;
35667;SDS011;22158;59.280;17.806;2023-02-28T07:30:23;1.83;;;0.90;;
35667;SDS011;22158;59.280;17.806;2023-02-28T07:32:49;1.00;;;0.70;;
35667;SDS011;22158;59.280;17.806;2023-02-28T07:35:15;0.93;;;0.80;;
35667;SDS011;22158;59.280;17.806;2023-02-28T07:37:41;1.45;;;0.70;;
35667;SDS011;22158;59.280;17.806;2023-02-28T07:40:08;0.65;;;0.65;;
35667;SDS011;22158;59.280;17.806;2023-02-28T07:42:39;1.13;;;0.80;;
35667;SDS011;22158;59.280;17.806;2023-02-28T07:45:05;0.80;;;0.80;;
35667;SDS011;22158;59.280;17.806;2023-02-28T07:47:32;0.52;;;0.52;;
35667;SDS011;22158;59.280;17.806;2023-02-28T07:49:58;0.63;;;0.63;;
35667;SDS011;22158;59.280;17.806;2023-02-28T07:52:23;0.60;;;0.60;;
35667;SDS011;22158;59.280;17.806;2023-02-28T07:54:50;2.85;;;0.85;;
35667;SDS011;22158;59.280;17.806;2023-02-28T07:57:16;1.65;;;0.70;;
35667;SDS011;22158;59.280;17.806;2023-02-28T07:59:42;0.80;;;0.70;;
35667;SDS011;22158;59.280;17.806;2023-02-28T08:02:11;0.52;;;0.52;;
35667;SDS011;22158;59.280;17.806;2023-02-28T08:04:38;0.75;;;0.60;;
35667;SDS011;22158;59.280;17.806;2023-02-28T08:07:04;0.57;;;0.57;;
35667;SDS011;22158;59.280;17.806;2023-02-28T08:09:29;0.93;;;0.63;;
35667;SDS011;22158;59.280;17.806;2023-02-28T08:11:55;0.63;;;0.63;;
35667;SDS011;22158;59.280;17.806;2023-02-28T08:14:21;0.60;;;0.60;;
35667;SDS011;22158;59.280;17.806;2023-02-28T08:16:47;4.13;;;0.80;;
35667;SDS011;22158;59.280;17.806;2023-02-28T08:19:13;0.60;;;0.60;;
35667;SDS011;22158;59.280;17.806;2023-02-28T08:21:38;4.10;;;0.80;;
35667;SDS011;22158;59.280;17.806;2023-02-28T08:24:05;0.70;;;0.63;;
35667;SDS011;22158;59.280;17.806;2023-02-28T08:26:31;0.70;;;0.70;;
35667;SDS011;22158;59.280;17.806;2023-02-28T08:28:57;1.00;;;0.70;;
35667;SDS011;22158;59.280;17.806;2023-02-28T08:31:23;0.77;;;0.68;;
35667;SDS011;22158;59.280;17.806;2023-02-28T08:33:49;0.85;;;0.65;;
35667;SDS011;22158;59.280;17.806;2023-02-28T08:36:17;0.63;;;0.63;;
35667;SDS011;22158;59.280;17.806;2023-02-28T08:38:43;0.50;;;0.50;;
35667;SDS011;22158;59.280;17.806;2023-02-28T08:41:10;1.50;;;0.75;;
35667;SDS011;22158;59.280;17.806;2023-02-28T08:43:37;0.65;;;0.63;;
35667;SDS011;22158;59.280;17.806;2023-02-28T08:46:04;0.70;;;0.60;;
35667;SDS011;22158;59.280;17.806;2023-02-28T08:48:31;0.63;;;0.60;;
35667;SDS011;22158;59.280;17.806;2023-02-28T08:51:01;0.98;;;0.60;;
35667;SDS011;22158;59.280;17.806;2023-02-28T08:53:29;0.55;;;0.55;;
35667;SDS011;22158;59.280;17.806;2023-02-28T08:56:01;0.95;;;0.70;;
35667;SDS011;22158;59.280;17.806;2023-02-28T08:58:29;1.10;;;0.57;;
35667;SDS011;22158;59.280;17.806;2023-02-28T09:00:54;0.55;;;0.55;;
35667;SDS011;22158;59.280;17.806;2023-02-28T09:03:20;1.10;;;0.73;;
35667;SDS011;22158;59.280;17.806;2023-02-28T09:08:19;0.57;;;0.57;;
35667;SDS011;22158;59.280;17.806;2023-02-28T09:10:45;1.83;;;0.60;;
35667;SDS011;22158;59.280;17.806;2023-02-28T09:13:11;0.47;;;0.47;;
35667;SDS011;22158;59.280;17.806;2023-02-28T09:15:38;0.73;;;0.52;;
35667;SDS011;22158;59.280;17.806;2023-02-28T09:18:04;0.60;;;0.60;;
35667;SDS011;22158;59.280;17.806;2023-02-28T09:20:29;0.50;;;0.50;;
35667;SDS011;22158;59.280;17.806;2023-02-28T09:22:55;0.50;;;0.50;;
35667;SDS011;22158;59.280;17.806;2023-02-28T09:25:21;0.98;;;0.60;;
35667;SDS011;22158;59.280;17.806;2023-02-28T09:27:46;0.55;;;0.55;;
35667;SDS011;22158;59.280;17.806;2023-02-28T09:30:12;0.60;;;0.60;;
35667;SDS011;22158;59.280;17.806;2023-02-28T09:32:38;0.60;;;0.60;;
35667;SDS011;22158;59.280;17.806;2023-02-28T09:35:04;1.25;;;0.70;;
35667;SDS011;22158;59.280;17.806;2023-02-28T09:37:31;0.68;;;0.60;;
35667;SDS011;22158;59.280;17.806;2023-02-28T09:39:57;1.50;;;0.60;;
35667;SDS011;22158;59.280;17.806;2023-02-28T09:42:29;1.05;;;0.70;;
35667;SDS011;22158;59.280;17.806;2023-02-28T09:44:57;5.05;;;0.90;;
35667;SDS011;22158;59.280;17.806;2023-02-28T09:47:36;0.50;;;0.50;;
35667;SDS011;22158;59.280;17.806;2023-02-28T09:53:21;0.50;;;0.47;;
35667;SDS011;22158;59.280;17.806;2023-02-28T09:55:53;0.80;;;0.60;;
35667;SDS011;22158;59.280;17.806;2023-02-28T09:58:26;0.70;;;0.70;;
35667;SDS011;22158;59.280;17.806;2023-02-28T10:01:01;0.90;;;0.63;;
35667;SDS011;22158;59.280;17.806;2023-02-28T10:03:34;0.60;;;0.60;;
35667;SDS011;22158;59.280;17.806;2023-02-28T10:08:50;0.63;;;0.63;;
35667;SDS011;22158;59.280;17.806;2023-02-28T10:11:22;0.75;;;0.65;;
35667;SDS011;22158;59.280;17.806;2023-02-28T10:13:51;0.50;;;0.50;;
35667;SDS011;22158;59.280;17.806;2023-02-28T10:21:54;0.50;;;0.50;;
35667;SDS011;22158;59.280;17.806;2023-02-28T10:27:22;0.98;;;0.60;;
35667;SDS011;22158;59.280;17.806;2023-02-28T10:29:49;1.20;;;0.52;;
35667;SDS011;22158;59.280;17.806;2023-02-28T10:32:20;0.95;;;0.60;;
35667;SDS011;22158;59.280;17.806;2023-02-28T10:34:51;0.40;;;0.40;;
35667;SDS011;22158;59.280;17.806;2023-02-28T10:37:22;1.10;;;0.70;;
35667;SDS011;22158;59.280;17.806;2023-02-28T10:39:47;0.40;;;0.40;;
35667;SDS011;22158;59.280;17.806;2023-02-28T10:44:45;2.03;;;0.50;;
35667;SDS011;22158;59.280;17.806;2023-02-28T10:47:14;0.57;;;0.57;;
35667;SDS011;22158;59.280;17.806;2023-02-28T10:49:47;0.68;;;0.68;;
35667;SDS011;22158;59.280;17.806;2023-02-28T10:52:14;0.50;;;0.50;;
35667;SDS011;22158;59.280;17.806;2023-02-28T10:55:13;0.93;;;0.40;;
35667;SDS011;22158;59.280;17.806;2023-02-28T10:57:47;2.25;;;0.80;;
35667;SDS011;22158;59.280;17.806;2023-02-28T11:00:17;2.78;;;0.50;;
35667;SDS011;22158;59.280;17.806;2023-02-28T11:02:46;1.10;;;0.50;;
35667;SDS011;22158;59.280;17.806;2023-02-28T11:05:23;2.30;;;0.70;;
35667;SDS011;22158;59.280;17.806;2023-02-28T11:08:15;0.47;;;0.47;;
35667;SDS011;22158;59.280;17.806;2023-02-28T11:10:45;1.00;;;0.55;;
35667;SDS011;22158;59.280;17.806;2023-02-28T11:13:17;1.80;;;0.55;;
35667;SDS011;22158;59.280;17.806;2023-02-28T11:15:52;1.15;;;0.55;;
35667;SDS011;22158;59.280;17.806;2023-02-28T11:20:55;0.63;;;0.50;;
35667;SDS011;22158;59.280;17.806;2023-02-28T11:23:28;0.50;;;0.50;;
35667;SDS011;22158;59.280;17.806;2023-02-28T11:25:57;0.47;;;0.47;;
35667;SDS011;22158;59.280;17.806;2023-02-28T11:28:27;0.83;;;0.50;;
35667;SDS011;22158;59.280;17.806;2023-02-28T11:31:05;0.95;;;0.60;;
35667;SDS011;22158;59.280;17.806;2023-02-28T11:38:40;0.60;;;0.57;;
35667;SDS011;22158;59.280;17.806;2023-02-28T11:46:46;0.60;;;0.60;;
35667;SDS011;22158;59.280;17.806;2023-02-28T11:49:22;5.20;;;0.60;;
35667;SDS011;22158;59.280;17.806;2023-02-28T11:57:03;0.60;;;0.57;;
35667;SDS011;22158;59.280;17.806;2023-02-28T12:28:31;1.27;;;0.50;;
35667;SDS011;22158;59.280;17.806;2023-02-28T12:31:06;0.82;;;0.57;;
35667;SDS011;22158;59.280;17.806;2023-02-28T12:33:46;4.05;;;0.60;;
35667;SDS011;22158;59.280;17.806;2023-02-28T12:36:17;1.02;;;0.60;;
35667;SDS011;22158;59.280;17.806;2023-02-28T12:44:01;0.47;;;0.47;;
35667;SDS011;22158;59.280;17.806;2023-02-28T12:46:35;0.70;;;0.70;;
35667;SDS011;22158;59.280;17.806;2023-02-28T12:49:08;0.52;;;0.50;;
35667;SDS011;22158;59.280;17.806;2023-02-28T12:51:42;0.50;;;0.50;;
35667;SDS011;22158;59.280;17.806;2023-02-28T12:56:42;0.80;;;0.80;;
35667;SDS011;22158;59.280;17.806;2023-02-28T13:09:59;1.92;;;1.00;;
35667;SDS011;22158;59.280;17.806;2023-02-28T13:12:27;1.40;;;0.73;;
35667;SDS011;22158;59.280;17.806;2023-02-28T13:17:50;0.95;;;0.50;;
35667;SDS011;22158;59.280;17.806;2023-02-28T13:20:29;3.45;;;1.23;;
35667;SDS011;22158;59.280;17.806;2023-02-28T13:23:01;2.10;;;0.60;;
35667;SDS011;22158;59.280;17.806;2023-02-28T13:28:00;1.70;;;1.17;;
35667;SDS011;22158;59.280;17.806;2023-02-28T13:38:39;0.77;;;0.73;;
35667;SDS011;22158;59.280;17.806;2023-02-28T13:44:36;0.50;;;0.50;;
35667;SDS011;22158;59.280;17.806;2023-02-28T13:52:33;1.98;;;0.70;;
35667;SDS011;22158;59.280;17.806;2023-02-28T13:57:06;0.80;;;0.63;;
35667;SDS011;22158;59.280;17.806;2023-02-28T14:06:07;1.45;;;1.00;;
35667;SDS011;22158;59.280;17.806;2023-02-28T14:08:34;3.33;;;0.80;;
35667;SDS011;22158;59.280;17.806;2023-02-28T14:11:04;1.70;;;0.82;;
35667;SDS011;22158;59.280;17.806;2023-02-28T14:16:09;2.25;;;0.98;;
35667;SDS011;22158;59.280;17.806;2023-02-28T14:18:40;1.17;;;0.70;;
35667;SDS011;22158;59.280;17.806;2023-02-28T14:21:29;1.30;;;0.93;;
35667;SDS011;22158;59.280;17.806;2023-02-28T14:24:09;1.42;;;0.80;;
35667;SDS011;22158;59.280;17.806;2023-02-28T14:27:08;1.02;;;0.70;;
35667;SDS011;22158;59.280;17.806;2023-02-28T14:37:44;0.90;;;0.80;;
35667;SDS011;22158;59.280;17.806;2023-02-28T14:40:12;2.60;;;0.80;;
35667;SDS011;22158;59.280;17.806;2023-02-28T14:42:45;1.00;;;0.80;;
35667;SDS011;22158;59.280;17.806;2023-02-28T14:45:17;2.30;;;0.90;;
35667;SDS011;22158;59.280;17.806;2023-02-28T14:47:44;1.48;;;0.75;;
35667;SDS011;22158;59.280;17.806;2023-02-28T14:53:10;1.33;;;1.13;;
35667;SDS011;22158;59.280;17.806;2023-02-28T14:55:46;1.27;;;0.80;;
35667;SDS011;22158;59.280;17.806;2023-02-28T15:00:56;1.33;;;0.90;;
35667;SDS011;22158;59.280;17.806;2023-02-28T15:03:32;1.00;;;0.88;;
35667;SDS011;22158;59.280;17.806;2023-02-28T15:06:03;2.05;;;0.95;;
35667;SDS011;22158;59.280;17.806;2023-02-28T15:08:31;2.38;;;0.70;;
35667;SDS011;22158;59.280;17.806;2023-02-28T15:13:36;1.35;;;0.98;;
35667;SDS011;22158;59.280;17.806;2023-02-28T15:16:08;2.15;;;0.98;;
35667;SDS011;22158;59.280;17.806;2023-02-28T15:18:46;1.98;;;1.20;;
35667;SDS011;22158;59.280;17.806;2023-02-28T15:21:17;2.35;;;1.30;;
35667;SDS011;22158;59.280;17.806;2023-02-28T15:23:55;3.35;;;1.70;;
35667;SDS011;22158;59.280;17.806;2023-02-28T15:26:26;1.30;;;0.95;;
35667;SDS011;22158;59.280;17.806;2023-02-28T15:29:01;1.23;;;0.60;;
35667;SDS011;22158;59.280;17.806;2023-02-28T15:31:34;1.35;;;0.90;;
35667;SDS011;22158;59.280;17.806;2023-02-28T15:34:06;1.10;;;0.70;;
35667;SDS011;22158;59.280;17.806;2023-02-28T15:36:41;1.98;;;1.30;;
35667;SDS011;22158;59.280;17.806;2023-02-28T15:39:23;2.78;;;1.40;;
35667;SDS011;22158;59.280;17.806;2023-02-28T15:41:52;3.08;;;1.30;;
35667;SDS011;22158;59.280;17.806;2023-02-28T15:44:34;0.82;;;0.65;;
35667;SDS011;22158;59.280;17.806;2023-02-28T15:47:04;2.40;;;0.60;;
35667;SDS011;22158;59.280;17.806;2023-02-28T15:49:54;1.10;;;0.80;;
35667;SDS011;22158;59.280;17.806;2023-02-28T15:52:21;2.03;;;1.15;;
35667;SDS011;22158;59.280;17.806;2023-02-28T15:55:12;1.70;;;0.90;;
35667;SDS011;22158;59.280;17.806;2023-02-28T15:57:48;3.03;;;0.98;;
35667;SDS011;22158;59.280;17.806;2023-02-28T16:00:19;2.92;;;0.80;;
35667;SDS011;22158;59.280;17.806;2023-02-28T16:02:46;2.70;;;1.08;;
35667;SDS011;22158;59.280;17.806;2023-02-28T16:05:20;1.38;;;0.68;;
35667;SDS011;22158;59.280;17.806;2023-02-28T16:07:56;0.60;;;0.60;;
35667;SDS011;22158;59.280;17.806;2023-02-28T16:10:38;1.00;;;0.80;;
35667;SDS011;22158;59.280;17.806;2023-02-28T16:13:06;1.20;;;0.82;;
35667;SDS011;22158;59.280;17.806;2023-02-28T16:15:37;1.55;;;1.13;;
35667;SDS011;22158;59.280;17.806;2023-02-28T16:18:07;3.05;;;1.73;;
35667;SDS011;22158;59.280;17.806;2023-02-28T16:20:36;9.07;;;4.43;;
35667;SDS011;22158;59.280;17.806;2023-02-28T16:23:02;7.55;;;3.15;;
35667;SDS011;22158;59.280;17.806;2023-02-28T16:25:29;5.03;;;2.60;;
35667;SDS011;22158;59.280;17.806;2023-02-28T16:28:01;4.93;;;2.30;;
35667;SDS011;22158;59.280;17.806;2023-02-28T16:30:28;2.92;;;1.83;;
35667;SDS011;22158;59.280;17.806;2023-02-28T16:32:57;4.63;;;2.13;;
35667;SDS011;22158;59.280;17.806;2023-02-28T16:35:23;7.18;;;3.22;;
35667;SDS011;22158;59.280;17.806;2023-02-28T16:37:52;7.18;;;3.70;;
35667;SDS011;22158;59.280;17.806;2023-02-28T16:40:20;18.52;;;9.05;;
35667;SDS011;22158;59.280;17.806;2023-02-28T16:42:48;29.38;;;11.90;;
35667;SDS011;22158;59.280;17.806;2023-02-28T16:45:23;16.17;;;9.65;;
35667;SDS011;22158;59.280;17.806;2023-02-28T16:47:51;15.50;;;8.63;;
35667;SDS011;22158;59.280;17.806;2023-02-28T16:50:18;9.93;;;2.05;;
35667;SDS011;22158;59.280;17.806;2023-02-28T16:52:46;5.57;;;2.33;;
35667;SDS011;22158;59.280;17.806;2023-02-28T16:55:13;4.03;;;2.17;;
35667;SDS011;22158;59.280;17.806;2023-02-28T16:57:39;2.67;;;1.60;;
35667;SDS011;22158;59.280;17.806;2023-02-28T17:00:06;1.65;;;1.00;;
35667;SDS011;22158;59.280;17.806;2023-02-28T17:02:33;1.65;;;1.20;;
35667;SDS011;22158;59.280;17.806;2023-02-28T17:04:59;2.15;;;1.45;;
35667;SDS011;22158;59.280;17.806;2023-02-28T17:07:25;1.70;;;0.73;;
35667;SDS011;22158;59.280;17.806;2023-02-28T17:09:50;1.80;;;0.75;;
35667;SDS011;22158;59.280;17.806;2023-02-28T17:12:16;3.28;;;1.10;;
35667;SDS011;22158;59.280;17.806;2023-02-28T17:14:42;1.00;;;0.90;;
35667;SDS011;22158;59.280;17.806;2023-02-28T17:17:09;1.80;;;1.13;;
35667;SDS011;22158;59.280;17.806;2023-02-28T17:19:42;1.95;;;1.00;;
35667;SDS011;22158;59.280;17.806;2023-02-28T17:22:08;2.22;;;1.20;;
35667;SDS011;22158;59.280;17.806;2023-02-28T17:24:35;5.93;;;1.63;;
35667;SDS011;22158;59.280;17.806;2023-02-28T17:27:01;2.13;;;1.63;;
35667;SDS011;22158;59.280;17.806;2023-02-28T17:29:27;6.25;;;1.90;;
35667;SDS011;22158;59.280;17.806;2023-02-28T17:31:52;4.40;;;2.47;;
35667;SDS011;22158;59.280;17.806;2023-02-28T17:34:18;5.60;;;1.73;;
35667;SDS011;22158;59.280;17.806;2023-02-28T17:36:45;3.20;;;2.45;;
35667;SDS011;22158;59.280;17.806;2023-02-28T17:39:12;2.08;;;1.50;;
35667;SDS011;22158;59.280;17.806;2023-02-28T17:41:45;2.17;;;1.20;;
35667;SDS011;22158;59.280;17.806;2023-02-28T17:44:11;3.00;;;1.83;;
35667;SDS011;22158;59.280;17.806;2023-02-28T17:46:37;3.10;;;1.50;;
35667;SDS011;22158;59.280;17.806;2023-02-28T17:49:03;3.75;;;1.55;;
35667;SDS011;22158;59.280;17.806;2023-02-28T17:51:29;35.03;;;3.55;;
35667;SDS011;22158;59.280;17.806;2023-02-28T17:53:55;2.83;;;1.88;;
35667;SDS011;22158;59.280;17.806;2023-02-28T17:56:27;3.17;;;1.38;;
35667;SDS011;22158;59.280;17.806;2023-02-28T17:58:53;2.80;;;1.15;;
35667;SDS011;22158;59.280;17.806;2023-02-28T18:01:21;1.77;;;1.10;;
35667;SDS011;22158;59.280;17.806;2023-02-28T18:03:49;2.78;;;1.40;;
35667;SDS011;22158;59.280;17.806;2023-02-28T18:06:19;1.92;;;1.05;;
35667;SDS011;22158;59.280;17.806;2023-02-28T18:08:51;2.15;;;1.25;;
35667;SDS011;22158;59.280;17.806;2023-02-28T18:11:18;1.83;;;1.25;;
35667;SDS011;22158;59.280;17.806;2023-02-28T18:13:45;2.83;;;1.98;;
35667;SDS011;22158;59.280;17.806;2023-02-28T18:16:16;6.78;;;3.55;;
35667;SDS011;22158;59.280;17.806;2023-02-28T18:18:42;3.88;;;3.00;;
35667;SDS011;22158;59.280;17.806;2023-02-28T18:21:09;2.38;;;1.90;;
35667;SDS011;22158;59.280;17.806;2023-02-28T18:23:40;1.95;;;1.42;;
35667;SDS011;22158;59.280;17.806;2023-02-28T18:26:12;2.63;;;1.40;;
35667;SDS011;22158;59.280;17.806;2023-02-28T18:28:42;2.58;;;1.20;;
35667;SDS011;22158;59.280;17.806;2023-02-28T18:31:09;3.28;;;1.90;;
35667;SDS011;22158;59.280;17.806;2023-02-28T18:33:37;1.50;;;1.20;;
35667;SDS011;22158;59.280;17.806;2023-02-28T18:36:04;1.48;;;1.00;;
35667;SDS011;22158;59.280;17.806;2023-02-28T18:38:30;3.80;;;1.30;;
35667;SDS011;22158;59.280;17.806;2023-02-28T18:41:00;2.17;;;1.00;;
35667;SDS011;22158;59.280;17.806;2023-02-28T18:45:55;3.40;;;2.22;;
35667;SDS011;22158;59.280;17.806;2023-02-28T18:48:21;4.07;;;1.67;;
35667;SDS011;22158;59.280;17.806;2023-02-28T18:50:50;4.05;;;1.65;;
35667;SDS011;22158;59.280;17.806;2023-02-28T18:53:16;2.88;;;1.25;;
35667;SDS011;22158;59.280;17.806;2023-02-28T18:55:42;1.40;;;0.93;;
35667;SDS011;22158;59.280;17.806;2023-02-28T18:58:08;1.65;;;1.27;;
35667;SDS011;22158;59.280;17.806;2023-02-28T19:00:34;2.30;;;1.20;;
35667;SDS011;22158;59.280;17.806;2023-02-28T19:03:01;3.83;;;2.55;;
35667;SDS011;22158;59.280;17.806;2023-02-28T19:05:27;4.38;;;2.72;;
35667;SDS011;22158;59.280;17.806;2023-02-28T19:07:57;2.72;;;1.63;;
35667;SDS011;22158;59.280;17.806;2023-02-28T19:10:23;2.47;;;1.70;;
35667;SDS011;22158;59.280;17.806;2023-02-28T19:12:48;1.73;;;1.00;;
35667;SDS011;22158;59.280;17.806;2023-02-28T19:15:14;1.92;;;1.15;;
35667;SDS011;22158;59.280;17.806;2023-02-28T19:17:40;1.83;;;1.10;;
35667;SDS011;22158;59.280;17.806;2023-02-28T19:20:06;1.52;;;1.00;;
35667;SDS011;22158;59.280;17.806;2023-02-28T19:22:33;1.50;;;1.30;;
35667;SDS011;22158;59.280;17.806;2023-02-28T19:25:00;1.83;;;1.20;;
35667;SDS011;22158;59.280;17.806;2023-02-28T19:27:27;1.33;;;0.82;;
35667;SDS011;22158;59.280;17.806;2023-02-28T19:29:56;1.75;;;0.90;;
35667;SDS011;22158;59.280;17.806;2023-02-28T19:32:23;2.35;;;1.00;;
35667;SDS011;22158;59.280;17.806;2023-02-28T19:34:49;1.48;;;1.05;;
35667;SDS011;22158;59.280;17.806;2023-02-28T19:37:15;1.45;;;1.00;;
35667;SDS011;22158;59.280;17.806;2023-02-28T19:39:44;1.45;;;0.93;;
35667;SDS011;22158;59.280;17.806;2023-02-28T19:42:11;2.10;;;1.40;;
35667;SDS011;22158;59.280;17.806;2023-02-28T19:44:38;4.57;;;1.40;;
35667;SDS011;22158;59.280;17.806;2023-02-28T19:47:05;1.58;;;1.10;;
35667;SDS011;22158;59.280;17.806;2023-02-28T19:49:31;2.60;;;1.13;;
35667;SDS011;22158;59.280;17.806;2023-02-28T19:51:57;1.40;;;1.13;;
35667;SDS011;22158;59.280;17.806;2023-02-28T19:54:24;1.10;;;1.00;;
35667;SDS011;22158;59.280;17.806;2023-02-28T19:56:50;1.40;;;1.10;;
35667;SDS011;22158;59.280;17.806;2023-02-28T19:59:18;2.17;;;1.30;;
35667;SDS011;22158;59.280;17.806;2023-02-28T20:01:44;1.42;;;1.10;;
35667;SDS011;22158;59.280;17.806;2023-02-28T20:04:11;1.17;;;1.08;;
35667;SDS011;22158;59.280;17.806;2023-02-28T20:06:37;2.50;;;1.38;;
35667;SDS011;22158;59.280;17.806;2023-02-28T20:09:03;2.58;;;1.70;;
35667;SDS011;22158;59.280;17.806;2023-02-28T20:11:29;1.75;;;1.20;;
35667;SDS011;22158;59.280;17.806;2023-02-28T20:13:55;5.07;;;2.33;;
35667;SDS011;22158;59.280;17.806;2023-02-28T20:16:21;7.47;;;3.70;;
35667;SDS011;22158;59.280;17.806;2023-02-28T20:18:48;4.80;;;2.60;;
35667;SDS011;22158;59.280;17.806;2023-02-28T20:21:18;3.45;;;1.60;;
35667;SDS011;22158;59.280;17.806;2023-02-28T20:23:44;2.72;;;2.20;;
35667;SDS011;22158;59.280;17.806;2023-02-28T20:26:12;1.67;;;1.30;;
35667;SDS011;22158;59.280;17.806;2023-02-28T20:28:40;2.00;;;1.27;;
35667;SDS011;22158;59.280;17.806;2023-02-28T20:31:09;1.77;;;1.50;;
35667;SDS011;22158;59.280;17.806;2023-02-28T20:34:02;3.80;;;1.70;;
35667;SDS011;22158;59.280;17.806;2023-02-28T20:36:28;2.38;;;1.60;;
35667;SDS011;22158;59.280;17.806;2023-02-28T20:38:54;1.52;;;1.33;;
35667;SDS011;22158;59.280;17.806;2023-02-28T20:41:20;2.55;;;1.40;;
35667;SDS011;22158;59.280;17.806;2023-02-28T20:43:46;1.40;;;1.30;;
35667;SDS011;22158;59.280;17.806;2023-02-28T20:46:16;3.50;;;1.60;;
35667;SDS011;22158;59.280;17.806;2023-02-28T20:48:42;1.67;;;1.27;;
35667;SDS011;22158;59.280;17.806;2023-02-28T20:51:07;3.50;;;1.50;;
35667;SDS011;22158;59.280;17.806;2023-02-28T20:53:33;2.13;;;1.55;;
35667;SDS011;22158;59.280;17.806;2023-02-28T20:58:28;3.13;;;1.50;;
35667;SDS011;22158;59.280;17.806;2023-02-28T21:03:25;1.73;;;1.20;;
35667;SDS011;22158;59.280;17.806;2023-02-28T21:05:50;2.00;;;1.60;;
35667;SDS011;22158;59.280;17.806;2023-02-28T21:08:16;2.25;;;1.73;;
35667;SDS011;22158;59.280;17.806;2023-02-28T21:10:42;6.80;;;4.00;;
35667;SDS011;22158;59.280;17.806;2023-02-28T21:13:07;87.03;;;35.22;;
35667;SDS011;22158;59.280;17.806;2023-02-28T21:15:36;83.93;;;35.92;;
35667;SDS011;22158;59.280;17.806;2023-02-28T21:18:02;84.63;;;35.03;;
35667;SDS011;22158;59.280;17.806;2023-02-28T21:20:28;72.28;;;32.40;;
35667;SDS011;22158;59.280;17.806;2023-02-28T21:22:53;34.75;;;16.17;;
35667;SDS011;22158;59.280;17.806;2023-02-28T21:25:19;35.10;;;14.77;;
35667;SDS011;22158;59.280;17.806;2023-02-28T21:27:45;18.70;;;8.02;;
35667;SDS011;22158;59.280;17.806;2023-02-28T21:30:12;11.63;;;5.55;;
35667;SDS011;22158;59.280;17.806;2023-02-28T21:32:38;15.60;;;6.88;;
35667;SDS011;22158;59.280;17.806;2023-02-28T21:35:04;26.50;;;11.95;;
35667;SDS011;22158;59.280;17.806;2023-02-28T21:37:31;13.60;;;7.10;;
35667;SDS011;22158;59.280;17.806;2023-02-28T21:39:57;11.50;;;5.05;;
35667;SDS011;22158;59.280;17.806;2023-02-28T21:42:23;22.05;;;10.00;;
35667;SDS011;22158;59.280;17.806;2023-02-28T21:44:48;15.68;;;7.18;;
35667;SDS011;22158;59.280;17.806;2023-02-28T21:47:14;6.93;;;3.10;;
35667;SDS011;22158;59.280;17.806;2023-02-28T21:49:40;4.15;;;2.50;;
35667;SDS011;22158;59.280;17.806;2023-02-28T21:52:05;3.20;;;2.00;;
35667;SDS011;22158;59.280;17.806;2023-02-28T21:54:31;3.38;;;1.60;;
35667;SDS011;22158;59.280;17.806;2023-02-28T21:56:57;2.20;;;1.50;;
35667;SDS011;22158;59.280;17.806;2023-02-28T21:59:23;2.40;;;1.20;;
35667;SDS011;22158;59.280;17.806;2023-02-28T22:01:49;2.28;;;1.05;;
35667;SDS011;22158;59.280;17.806;2023-02-28T22:04:16;1.17;;;0.93;;
35667;SDS011;22158;59.280;17.806;2023-02-28T22:06:51;1.50;;;1.10;;